GCLP

Gran Canaria Airport

Gran Canaria Island, Spain
METAR GCLP 190700Z 36019KT 9999 FEW020 21/17 Q1016 NOSIG
Observed Flight Rules
Jul-19 @ 07:00 UTC (40 minutes ago) Visual Flight Rules
Wind Visibility Clouds
360° at 19 knots 10,000+ meters
  • Few at 2,000' AGL
Temperatures Readings
Current 21°C / 70°F
Dewpoint 17°C / 63°F
Humidity 78%
Altimeter 30" Hg
Pressure 1016 hPa
Elevation 25
METAR GCLP 190700Z 36019KT 9999 FEW020 21/17 Q1016 NOSIG
Observed Flight Rules
Jul-19 @ 07:00 UTC
(40 minutes ago)
VFR
Wind Visibility
360° at 19 knots 10,000+ meters
Clouds
  • Few at 2,000' AGL
Temperature Dewpoint
21°C / 70°F 17°C / 63°F
Humidity Altimeter Pressure
78% 30" Hg 1016 hPa